Time;durP1;ratioP1;P1;durP2;ratioP2;P2;SDS_P1;SDS_P2;PMS_P1;PMS_P2;Temp;Humidity;BMP_temperature;BMP_pressure;BME280_temperature;BME280_humidity;BME280_pressure;Samples;Min_cycle;Max_cycle;Signal;HPM_P1;HPM_P2
2023/12/04 00:00:25;;;;;;;0.40;0.40;;;;;;;10.29;100.00;95360.56;5131972;28;20804;-60
2023/12/04 00:02:55;;;;;;;0.50;0.43;;;;;;;10.26;100.00;95368.22;5131885;27;20974;-60
2023/12/04 00:05:23;;;;;;;0.47;0.37;;;;;;;10.13;100.00;95367.72;5132157;28;20438;-60
2023/12/04 00:07:52;;;;;;;0.40;0.33;;;;;;;10.07;100.00;95375.88;5132180;27;20438;-60
2023/12/04 00:10:21;;;;;;;0.50;0.50;;;;;;;9.99;100.00;95379.84;5131615;28;20491;-60
2023/12/04 00:12:49;;;;;;;1.23;0.57;;;;;;;10.17;100.00;95371.41;5131589;28;20438;-59
2023/12/04 00:15:20;;;;;;;0.40;0.30;;;;;;;10.28;100.00;95382.81;5131777;27;20961;-60
2023/12/04 00:17:50;;;;;;;0.40;0.30;;;;;;;9.98;100.00;95382.75;5132058;28;20499;-60
2023/12/04 00:20:19;;;;;;;0.70;0.70;;;;;;;10.10;100.00;95370.84;5131783;28;20438;-59
2023/12/04 00:22:47;;;;;;;0.40;0.33;;;;;;;10.14;100.00;95371.16;5131746;28;20431;-59
2023/12/04 00:25:16;;;;;;;0.50;0.50;;;;;;;10.00;100.00;95381.44;5131473;27;20446;-60
2023/12/04 00:27:45;;;;;;;1.50;0.77;;;;;;;9.94;99.50;95393.06;5131442;28;20466;-59
2023/12/04 00:30:13;;;;;;;0.60;0.60;;;;;;;9.85;99.37;95401.78;5131537;28;20435;-59
2023/12/04 00:32:41;;;;;;;0.67;0.60;;;;;;;9.82;98.61;95413.69;5131606;28;20979;-59
2023/12/04 00:35:11;;;;;;;0.40;0.40;;;;;;;9.79;100.00;95424.81;5131711;28;20469;-59
2023/12/04 00:37:40;;;;;;;0.40;0.40;;;;;;;9.66;99.54;95420.03;5131351;27;20965;-60
2023/12/04 00:40:09;;;;;;;0.60;0.60;;;;;;;9.78;99.58;95425.88;5131253;27;20438;-60
2023/12/04 00:42:38;;;;;;;4.73;1.57;;;;;;;9.79;98.35;95434.63;5131482;28;20434;-60
2023/12/04 00:45:24;;;;;;;1.67;0.80;;;;;;;9.78;98.02;95420.59;5131998;28;20433;-59
2023/12/04 00:47:52;;;;;;;0.30;0.30;;;;;;;9.87;97.96;95403.13;5131562;28;20442;-59
2023/12/04 00:50:23;;;;;;;0.97;0.80;;;;;;;9.75;96.74;95377.97;5131044;28;20837;-59
2023/12/04 00:52:52;;;;;;;0.90;0.90;;;;;;;9.82;98.05;95411.06;5131532;28;20430;-59
2023/12/04 00:55:21;;;;;;;0.50;0.37;;;;;;;9.94;95.28;95419.53;5131785;27;20430;-59
2023/12/04 00:57:49;;;;;;;0.47;0.30;;;;;;;9.83;94.46;95423.25;5134287;27;20530;-59
2023/12/04 01:00:18;;;;;;;0.40;0.30;;;;;;;9.56;94.89;95425.28;5134646;27;20513;-60
2023/12/04 01:02:47;;;;;;;1.00;0.60;;;;;;;9.67;96.47;95434.84;5135457;27;20449;-59
2023/12/04 01:05:15;;;;;;;0.30;0.23;;;;;;;9.69;94.75;95438.00;5134721;27;20507;-59
2023/12/04 01:07:46;;;;;;;0.40;0.40;;;;;;;9.76;93.47;95433.28;5135271;27;20450;-59
2023/12/04 01:10:15;;;;;;;0.43;0.40;;;;;;;9.54;93.97;95441.41;5108420;27;20469;-60
2023/12/04 01:12:43;;;;;;;0.80;0.80;;;;;;;9.41;95.43;95425.25;5135031;27;20438;-59
2023/12/04 01:15:12;;;;;;;0.40;0.30;;;;;;;9.49;94.80;95449.34;5134859;27;20462;-59
2023/12/04 01:17:40;;;;;;;0.30;0.30;;;;;;;9.67;95.42;95453.38;5134503;27;20477;-59
2023/12/04 01:20:10;;;;;;;0.50;0.30;;;;;;;9.93;94.67;95441.00;5135236;27;20430;-60
2023/12/04 01:22:38;;;;;;;0.40;0.40;;;;;;;10.12;95.20;95428.88;5134248;27;20441;-59
2023/12/04 01:25:10;;;;;;;0.43;0.30;;;;;;;10.34;94.77;95423.34;5134699;27;20854;-60
2023/12/04 01:27:39;;;;;;;0.90;0.90;;;;;;;10.41;95.77;95413.28;5133471;27;20847;-60
2023/12/04 01:30:10;;;;;;;0.47;0.37;;;;;;;10.02;92.61;95412.94;5134301;27;20438;-60
2023/12/04 01:32:38;;;;;;;0.70;0.40;;;;;;;9.67;95.51;95410.22;5133522;27;20442;-59
2023/12/04 01:35:08;;;;;;;0.70;0.67;;;;;;;9.62;95.13;95416.31;5133715;27;20954;-59
2023/12/04 01:37:38;;;;;;;0.60;0.60;;;;;;;9.44;96.43;95408.81;5133805;27;20631;-59
2023/12/04 01:40:10;;;;;;;0.97;0.87;;;;;;;9.56;99.26;95425.28;5134042;27;20469;-58
2023/12/04 01:42:38;;;;;;;3.67;0.47;;;;;;;9.69;100.00;95424.00;5133304;27;20530;-59
2023/12/04 01:45:08;;;;;;;0.53;0.50;;;;;;;10.12;100.00;95423.56;5134194;27;20435;-59
2023/12/04 01:47:37;;;;;;;0.63;0.63;;;;;;;10.43;100.00;95432.34;5108541;27;20446;-58
2023/12/04 01:50:08;;;;;;;0.40;0.30;;;;;;;10.32;100.00;95439.50;5133852;27;20478;-58
2023/12/04 01:52:37;;;;;;;0.40;0.37;;;;;;;10.32;100.00;95436.06;5134508;27;20947;-59
2023/12/04 01:55:10;;;;;;;0.40;0.40;;;;;;;10.60;100.00;95451.44;5133344;27;20984;-60
2023/12/04 01:57:39;;;;;;;0.67;0.63;;;;;;;10.55;100.00;95451.44;5134344;27;20478;-59
2023/12/04 02:00:11;;;;;;;0.50;0.30;;;;;;;10.17;100.00;95455.34;5133756;27;20418;-59
2023/12/04 02:02:40;;;;;;;0.80;0.43;;;;;;;10.31;100.00;95429.97;5133355;27;20445;-59
2023/12/04 02:05:09;;;;;;;0.60;0.30;;;;;;;10.67;100.00;95444.81;5133457;27;20431;-58
2023/12/04 02:07:38;;;;;;;0.50;0.30;;;;;;;10.72;100.00;95434.22;5133294;27;20450;-59
2023/12/04 02:10:09;;;;;;;0.30;0.20;;;;;;;10.64;97.83;95439.25;5133699;27;20961;-58
2023/12/04 02:12:38;;;;;;;0.90;0.40;;;;;;;10.77;98.16;95439.50;5133628;27;20442;-59
2023/12/04 02:15:08;;;;;;;0.30;0.20;;;;;;;10.66;98.41;95435.25;5133459;27;20495;-59
2023/12/04 02:17:37;;;;;;;0.40;0.30;;;;;;;10.57;97.23;95428.91;5132973;27;20993;-59
2023/12/04 02:20:07;;;;;;;0.60;0.60;;;;;;;10.68;95.16;95434.97;5107788;27;20430;-59
2023/12/04 02:22:36;;;;;;;0.30;0.23;;;;;;;10.24;94.70;95376.47;5133694;27;20953;-59
2023/12/04 02:25:09;;;;;;;0.60;0.30;;;;;;;10.82;94.74;95444.00;5133686;27;20441;-59
2023/12/04 02:28:00;;;;;;;0.40;0.40;;;;;;;10.54;91.77;95450.63;5132909;27;20470;-58
2023/12/04 02:30:31;;;;;;;0.40;0.30;;;;;;;10.27;90.13;95430.75;5133229;27;20518;-59
2023/12/04 02:33:04;;;;;;;2.50;0.30;;;;;;;10.17;93.67;95440.28;5107139;27;20430;-58
2023/12/04 02:35:35;;;;;;;0.37;0.30;;;;;;;9.98;88.71;95435.72;5133723;27;20422;-59
2023/12/04 02:38:04;;;;;;;0.40;0.30;;;;;;;9.61;88.21;95446.47;5133270;27;20539;-58
2023/12/04 02:40:34;;;;;;;4.20;0.30;;;;;;;9.66;89.00;95445.69;5133157;27;20934;-59
2023/12/04 02:43:03;;;;;;;0.40;0.30;;;;;;;9.05;87.38;95381.19;5133128;27;21000;-59
2023/12/04 02:45:32;;;;;;;0.50;0.37;;;;;;;9.54;91.47;95438.75;5132726;27;20815;-59
2023/12/04 02:48:00;;;;;;;0.30;0.30;;;;;;;9.65;91.55;95438.81;5133243;27;20532;-59
2023/12/04 02:50:29;;;;;;;0.50;0.33;;;;;;;9.13;87.95;95434.38;5132691;27;20478;-59
2023/12/04 02:52:58;;;;;;;0.40;0.40;;;;;;;9.36;90.93;95451.69;5133054;27;20482;-59
2023/12/04 02:55:26;;;;;;;0.50;0.30;;;;;;;9.09;92.15;95390.16;5132469;27;20797;-59
2023/12/04 02:57:56;;;;;;;0.30;0.20;;;;;;;9.40;89.41;95444.81;5132194;27;20481;-59
2023/12/04 03:00:25;;;;;;;0.73;0.73;;;;;;;9.37;92.70;95450.59;5132495;27;20434;-59
2023/12/04 03:02:54;;;;;;;0.50;0.43;;;;;;;9.42;100.00;95450.63;5132151;27;20439;-59
2023/12/04 03:05:24;;;;;;;0.60;0.50;;;;;;;9.51;92.65;95449.09;5132423;27;20815;-58
2023/12/04 03:07:52;;;;;;;0.50;0.50;;;;;;;9.44;90.82;95446.66;5133009;27;20511;-59
2023/12/04 03:10:21;;;;;;;0.40;0.33;;;;;;;9.69;92.26;95456.53;5106285;27;20553;-59
2023/12/04 03:12:50;;;;;;;0.40;0.30;;;;;;;9.58;87.46;95471.59;5132574;27;20439;-58
2023/12/04 03:15:20;;;;;;;0.40;0.30;;;;;;;9.49;89.03;95469.69;5132752;27;20965;-58
2023/12/04 03:17:48;;;;;;;0.40;0.30;;;;;;;9.55;91.61;95469.47;5132164;27;20557;-58
2023/12/04 03:20:17;;;;;;;0.40;0.30;;;;;;;9.42;87.14;95485.00;5132248;27;20434;-58
2023/12/04 03:22:44;;;;;;;0.47;0.47;;;;;;;9.57;88.23;95485.09;5132156;27;20442;-59
2023/12/04 03:25:13;;;;;;;0.40;0.30;;;;;;;9.40;87.11;95490.56;5132356;27;20445;-59
2023/12/04 03:27:42;;;;;;;0.40;0.30;;;;;;;9.14;87.80;95480.09;5132105;27;20524;-59
2023/12/04 03:30:11;;;;;;;0.50;0.40;;;;;;;9.13;90.46;95500.47;5132015;27;20460;-58
2023/12/04 03:32:41;;;;;;;0.60;0.60;;;;;;;8.84;90.73;95504.50;5131688;27;20433;-59
2023/12/04 03:35:10;;;;;;;4.47;0.40;;;;;;;9.09;99.96;95501.22;5132733;27;20446;-59
2023/12/04 03:37:38;;;;;;;0.47;0.37;;;;;;;9.09;90.81;95495.94;5132087;27;20470;-60
2023/12/04 03:40:08;;;;;;;1.07;0.80;;;;;;;8.85;90.98;95503.44;5131947;27;20554;-59
2023/12/04 03:42:37;;;;;;;0.50;0.30;;;;;;;8.86;89.38;95513.75;5132299;27;20435;-58
2023/12/04 03:45:07;;;;;;;1.10;1.07;;;;;;;8.83;88.22;95514.25;5132078;27;20442;-58
2023/12/04 03:47:35;;;;;;;1.20;1.10;;;;;;;8.82;91.28;95519.81;5119022;27;20914;-58
2023/12/04 03:50:07;;;;;;;1.40;1.00;;;;;;;8.86;89.34;95518.25;5131460;27;20557;-58
2023/12/04 03:52:35;;;;;;;0.60;0.50;;;;;;;9.04;91.70;95527.63;5132233;28;20953;-58
2023/12/04 03:55:04;;;;;;;2.53;1.40;;;;;;;9.13;89.31;95520.81;5131107;27;20459;-58
2023/12/04 03:57:33;;;;;;;0.40;0.40;;;;;;;9.16;88.70;95517.69;5132565;27;20498;-57
2023/12/04 04:00:02;;;;;;;0.40;0.30;;;;;;;9.27;90.91;95520.13;5132342;27;20965;-59
2023/12/04 04:02:31;;;;;;;0.50;0.30;;;;;;;9.35;93.45;95524.13;5131804;28;20434;-58
2023/12/04 04:04:59;;;;;;;0.40;0.30;;;;;;;9.30;90.13;95527.56;5131847;27;20500;-58
2023/12/04 04:07:29;;;;;;;0.50;0.50;;;;;;;9.31;91.81;95528.34;5131759;28;20824;-58
2023/12/04 04:09:58;;;;;;;0.70;0.30;;;;;;;8.41;90.71;95405.09;5131298;27;20467;-58
2023/12/04 04:12:28;;;;;;;0.80;0.73;;;;;;;8.68;89.16;95495.66;5132036;28;20431;-58
2023/12/04 04:14:56;;;;;;;0.30;0.30;;;;;;;9.35;93.33;95534.72;5131500;27;20431;-58
2023/12/04 04:17:26;;;;;;;0.40;0.30;;;;;;;8.95;87.26;95530.72;5131062;27;20462;-58
2023/12/04 04:19:55;;;;;;;0.30;0.30;;;;;;;8.71;88.17;95540.06;5131595;27;20513;-59
2023/12/04 04:22:23;;;;;;;0.40;0.40;;;;;;;8.48;89.96;95476.19;5131837;28;20525;-58
2023/12/04 04:24:53;;;;;;;0.40;0.30;;;;;;;9.00;91.11;95534.47;5131412;27;20434;-58
2023/12/04 04:27:23;;;;;;;0.43;0.33;;;;;;;8.63;88.67;95535.25;5131731;28;20443;-57
2023/12/04 04:29:52;;;;;;;0.77;0.77;;;;;;;8.67;89.79;95552.19;5131964;27;20446;-58
2023/12/04 04:32:21;;;;;;;0.60;0.40;;;;;;;9.05;89.28;95558.31;5131336;27;20438;-58
2023/12/04 04:34:49;;;;;;;0.40;0.30;;;;;;;9.06;89.27;95555.41;5125381;27;20430;-58
2023/12/04 04:37:17;;;;;;;0.40;0.30;;;;;;;9.32;87.09;95537.88;5135197;27;20444;-59
2023/12/04 04:39:46;;;;;;;0.60;0.40;;;;;;;9.12;86.15;95549.09;5130557;27;20954;-59
2023/12/04 04:42:16;;;;;;;0.60;0.53;;;;;;;9.14;87.45;95562.06;5135425;27;20439;-58
2023/12/04 04:44:45;;;;;;;0.67;0.53;;;;;;;9.16;93.92;95560.75;5135999;27;20446;-58
2023/12/04 04:47:13;;;;;;;0.60;0.47;;;;;;;8.93;87.29;95572.50;5134872;27;20465;-58
2023/12/04 04:49:42;;;;;;;0.70;0.57;;;;;;;8.69;88.25;95573.88;5135254;27;20465;-58
2023/12/04 04:52:11;;;;;;;0.50;0.40;;;;;;;8.94;89.70;95579.38;5134809;27;20441;-58
2023/12/04 04:54:40;;;;;;;0.80;0.80;;;;;;;8.94;90.73;95578.56;5134920;27;20457;-58
2023/12/04 04:57:08;;;;;;;0.50;0.40;;;;;;;9.02;89.76;95585.25;5134450;27;20517;-58
2023/12/04 04:59:41;;;;;;;0.40;0.40;;;;;;;9.19;89.16;95583.25;5135464;27;20477;-58
2023/12/04 05:02:10;;;;;;;1.30;0.37;;;;;;;8.96;90.82;95587.03;5108630;27;20443;-59
2023/12/04 05:04:38;;;;;;;5.47;0.93;;;;;;;8.79;91.72;95591.66;5135017;27;20472;-58
2023/12/04 05:07:07;;;;;;;2.13;2.03;;;;;;;8.82;93.26;95591.16;5134701;27;20438;-58
2023/12/04 05:09:36;;;;;;;0.40;0.37;;;;;;;8.90;92.28;95582.78;5134920;27;20439;-59
2023/12/04 05:12:05;;;;;;;0.40;0.30;;;;;;;8.67;92.20;95586.56;5135058;27;20442;-58
2023/12/04 05:14:33;;;;;;;0.40;0.30;;;;;;;8.47;93.28;95594.28;5134806;27;20524;-59
2023/12/04 05:17:04;;;;;;;0.40;0.30;;;;;;;8.35;95.74;95590.97;5134448;27;20435;-57
2023/12/04 05:19:32;;;;;;;0.50;0.50;;;;;;;8.41;95.25;95608.47;5134459;27;20510;-59
2023/12/04 05:22:01;;;;;;;2.03;0.63;;;;;;;8.29;94.26;95607.81;5135023;27;20442;-59
2023/12/04 05:24:30;;;;;;;0.40;0.30;;;;;;;8.37;98.30;95610.03;5134149;27;20441;-58
2023/12/04 05:26:59;;;;;;;0.93;0.93;;;;;;;8.37;98.47;95596.81;5133869;27;20472;-58
2023/12/04 05:29:28;;;;;;;1.57;0.93;;;;;;;8.66;96.40;95605.28;5134158;27;20564;-57
2023/12/04 05:31:57;;;;;;;1.37;1.13;;;;;;;8.57;94.37;95610.22;5134343;27;20444;-59
2023/12/04 05:34:27;;;;;;;0.50;0.50;;;;;;;8.66;97.62;95613.19;5134433;27;20439;-57
2023/12/04 05:36:55;;;;;;;0.70;0.70;;;;;;;8.43;93.61;95603.72;5134445;27;20809;-57
2023/12/04 05:39:24;;;;;;;0.40;0.40;;;;;;;8.42;94.65;95618.00;5134390;27;20597;-58
2023/12/04 05:41:52;;;;;;;4.13;0.53;;;;;;;8.13;93.82;95625.28;5132768;27;20495;-58
2023/12/04 05:44:21;;;;;;;0.50;0.40;;;;;;;8.24;94.78;95618.28;5134110;27;20434;-58
2023/12/04 05:46:49;;;;;;;0.50;0.50;;;;;;;8.37;95.08;95623.22;5133724;27;20434;-58
2023/12/04 05:49:18;;;;;;;0.63;0.60;;;;;;;8.35;93.68;95619.22;5133877;27;20907;-58
2023/12/04 05:51:48;;;;;;;0.93;0.83;;;;;;;8.46;98.28;95623.56;5120243;27;20435;-58
2023/12/04 05:54:17;;;;;;;0.97;0.97;;;;;;;8.54;93.81;95617.84;5134063;27;21003;-57
2023/12/04 05:56:45;;;;;;;1.70;0.60;;;;;;;8.62;93.65;95641.19;5133990;27;20473;-57
2023/12/04 05:59:14;;;;;;;0.67;0.53;;;;;;;8.50;95.32;95638.66;5134103;27;20509;-57
2023/12/04 06:01:43;;;;;;;0.53;0.50;;;;;;;8.77;96.70;95642.13;5133963;27;20430;-57
2023/12/04 06:04:11;;;;;;;1.00;1.00;;;;;;;8.18;96.30;95550.63;5133852;27;20435;-57
2023/12/04 06:06:40;;;;;;;0.47;0.47;;;;;;;9.09;97.88;95641.34;5134147;27;20529;-61
2023/12/04 06:09:10;;;;;;;0.40;0.40;;;;;;;8.58;97.20;95621.56;5134288;27;20520;-60
2023/12/04 06:11:39;;;;;;;0.50;0.30;;;;;;;8.91;96.70;95653.09;5128099;27;20467;-60
2023/12/04 06:14:07;;;;;;;0.47;0.47;;;;;;;9.10;91.17;95645.59;5125788;27;20430;-60
2023/12/04 06:16:36;;;;;;;0.50;0.50;;;;;;;9.32;89.77;95651.59;5133073;27;20441;-59
2023/12/04 06:19:05;;;;;;;0.47;0.30;;;;;;;9.32;87.37;95654.25;5133596;27;20466;-58
2023/12/04 06:21:33;;;;;;;0.40;0.30;;;;;;;9.61;86.68;95650.25;5134037;27;20430;-60
2023/12/04 06:24:02;;;;;;;1.23;1.23;;;;;;;9.69;85.21;95675.44;5133627;27;20525;-61
2023/12/04 06:26:40;;;;;;;0.50;0.33;;;;;;;9.75;83.60;95669.91;5133560;27;20470;-60
2023/12/04 06:29:10;;;;;;;0.50;0.40;;;;;;;9.99;84.66;95675.63;5133112;27;20445;-60
2023/12/04 06:31:39;;;;;;;0.40;0.40;;;;;;;10.34;84.27;95677.69;5133037;27;20523;-60
2023/12/04 06:34:08;;;;;;;0.37;0.27;;;;;;;10.73;82.99;95674.38;5133011;27;20782;-60
2023/12/04 06:36:40;;;;;;;0.80;0.73;;;;;;;10.93;80.75;95688.75;5133456;27;20808;-60
2023/12/04 06:39:12;;;;;;;0.40;0.30;;;;;;;10.71;79.69;95681.00;5133014;27;20482;-60
2023/12/04 06:41:43;;;;;;;0.60;0.47;;;;;;;10.99;79.44;95696.44;5133128;27;20480;-60
2023/12/04 06:44:13;;;;;;;0.40;0.40;;;;;;;11.00;79.51;95691.94;5132908;27;20430;-59
2023/12/04 06:46:47;;;;;;;0.63;0.63;;;;;;;10.55;78.41;95685.44;5132675;27;20709;-59
2023/12/04 06:49:18;;;;;;;0.67;0.67;;;;;;;10.80;77.64;95705.97;5132631;27;20462;-59
2023/12/04 06:51:47;;;;;;;1.57;0.33;;;;;;;10.10;78.79;95656.06;5133138;27;20442;-58
2023/12/04 06:54:17;;;;;;;1.67;0.40;;;;;;;10.74;78.39;95712.28;5132748;27;20435;-60
2023/12/04 06:56:47;;;;;;;0.47;0.30;;;;;;;10.89;77.60;95717.63;5133193;27;20442;-61
2023/12/04 06:59:16;;;;;;;0.40;0.30;;;;;;;10.79;77.13;95717.59;5133034;27;20462;-58
2023/12/04 07:01:45;;;;;;;0.40;0.30;;;;;;;10.68;76.65;95716.78;5132220;27;20446;-57
2023/12/04 07:04:20;;;;;;;0.30;0.20;;;;;;;10.26;77.78;95675.50;5133222;27;20807;-58
2023/12/04 07:06:50;;;;;;;1.03;0.40;;;;;;;10.64;78.86;95728.16;5132868;27;20432;-62
2023/12/04 07:09:20;;;;;;;0.40;0.40;;;;;;;10.55;78.45;95689.97;5133275;27;20491;-60
2023/12/04 07:11:50;;;;;;;0.40;0.40;;;;;;;10.82;76.72;95722.41;5132792;27;20445;-61
2023/12/04 07:14:18;;;;;;;1.70;0.30;;;;;;;11.05;79.98;95699.91;5132990;27;20439;-61
2023/12/04 07:16:48;;;;;;;0.97;0.83;;;;;;;11.26;74.55;95728.84;5132704;27;21012;-61
2023/12/04 07:19:16;;;;;;;0.80;0.40;;;;;;;11.81;73.38;95711.41;5132167;27;20977;-60
2023/12/04 07:21:45;;;;;;;0.87;0.60;;;;;;;12.41;71.28;95724.59;5132788;27;20922;-57
2023/12/04 07:24:14;;;;;;;1.13;1.13;;;;;;;13.05;67.85;95729.91;5132728;27;20946;-61
2023/12/04 07:26:42;;;;;;;0.40;0.30;;;;;;;13.61;66.71;95724.28;5133005;27;20442;-62
2023/12/04 07:29:12;;;;;;;0.60;0.60;;;;;;;13.55;63.67;95726.16;5132387;27;20533;-62
2023/12/04 07:31:42;;;;;;;0.40;0.30;;;;;;;13.90;62.31;95722.44;5132638;27;20494;-64
2023/12/04 07:34:11;;;;;;;0.40;0.40;;;;;;;14.32;61.58;95700.47;5131992;27;20431;-60
2023/12/04 07:36:39;;;;;;;0.40;0.30;;;;;;;15.08;59.72;95719.81;5132341;27;20453;-60
2023/12/04 07:39:09;;;;;;;0.40;0.30;;;;;;;14.76;59.52;95726.91;5132432;27;20526;-60
2023/12/04 07:41:37;;;;;;;0.70;0.60;;;;;;;14.97;57.54;95670.34;5131316;27;20871;-59
2023/12/04 07:44:06;;;;;;;0.93;0.60;;;;;;;15.62;56.37;95731.91;5116718;28;20443;-58
2023/12/04 07:46:36;;;;;;;0.50;0.50;;;;;;;15.43;55.76;95739.13;5124408;27;20442;-58
2023/12/04 07:49:05;;;;;;;0.50;0.40;;;;;;;15.98;53.89;95702.75;5132019;27;20466;-58
2023/12/04 07:51:33;;;;;;;0.43;0.30;;;;;;;16.19;54.71;95734.16;5131084;27;20474;-58
2023/12/04 07:54:02;;;;;;;0.50;0.30;;;;;;;16.09;53.78;95722.88;5132040;27;20438;-60
2023/12/04 07:56:31;;;;;;;0.40;0.30;;;;;;;16.27;52.98;95741.53;5132201;27;20430;-60
2023/12/04 07:59:00;;;;;;;0.50;0.40;;;;;;;16.57;52.03;95744.78;5122336;27;20434;-61
2023/12/04 08:01:29;;;;;;;0.40;0.30;;;;;;;16.41;51.42;95745.03;5132409;27;20427;-59
2023/12/04 08:03:59;;;;;;;0.50;0.40;;;;;;;16.60;51.19;95701.34;5131851;27;20736;-60
2023/12/04 08:06:28;;;;;;;0.60;0.53;;;;;;;16.86;50.43;95756.00;5134607;27;20434;-60
2023/12/04 08:08:57;;;;;;;0.80;0.80;;;;;;;17.10;51.37;95756.59;5135959;27;20434;-60
2023/12/04 08:11:26;;;;;;;0.50;0.40;;;;;;;17.67;48.85;95758.59;5136751;27;20496;-63
2023/12/04 08:13:55;;;;;;;0.80;0.80;;;;;;;17.88;48.87;95753.56;5109868;27;20949;-65
2023/12/04 08:16:23;;;;;;;0.50;0.50;;;;;;;17.72;46.76;95761.16;5136016;27;20491;-65
2023/12/04 08:18:52;;;;;;;0.53;0.30;;;;;;;17.10;46.97;95607.38;5135658;27;20495;-63
2023/12/04 08:21:22;;;;;;;1.07;0.97;;;;;;;18.79;45.06;95752.06;5135989;27;20470;-62
2023/12/04 08:23:50;;;;;;;0.73;0.73;;;;;;;18.49;45.61;95749.38;5135985;27;20470;-61
2023/12/04 08:26:23;;;;;;;0.83;0.83;;;;;;;17.14;47.35;95607.56;5136123;27;20439;-60
2023/12/04 08:28:51;;;;;;;0.80;0.80;;;;;;;19.04;45.96;95764.00;5136085;27;20911;-61
2023/12/04 08:31:38;;;;;;;0.50;0.40;;;;;;;19.13;44.52;95770.16;5136097;27;20518;-60
2023/12/04 08:34:07;;;;;;;0.67;0.50;;;;;;;20.02;44.76;95770.47;5135850;27;20434;-60
2023/12/04 08:36:37;;;;;;;0.50;0.30;;;;;;;19.56;45.18;95770.28;5135638;27;20434;-60
2023/12/04 08:39:14;;;;;;;0.93;0.50;;;;;;;19.66;48.89;95767.28;5135512;27;20452;-58
2023/12/04 08:41:45;;;;;;;0.50;0.30;;;;;;;18.96;43.93;95776.28;5135834;27;20497;-58
2023/12/04 08:44:28;;;;;;;1.50;1.40;;;;;;;18.68;46.01;95761.47;5136137;27;20943;-58
2023/12/04 08:46:57;;;;;;;0.60;0.43;;;;;;;19.10;44.99;95775.38;5135224;27;20953;-58
2023/12/04 08:49:26;;;;;;;0.83;0.83;;;;;;;17.92;46.48;95780.53;5135686;27;20481;-57
2023/12/04 08:52:11;;;;;;;0.40;0.30;;;;;;;18.41;44.90;95772.38;5136121;27;20438;-57
2023/12/04 08:54:41;;;;;;;4.07;1.63;;;;;;;19.25;44.18;95778.41;5135488;27;20962;-58
2023/12/04 08:57:10;;;;;;;0.40;0.40;;;;;;;19.50;44.07;95768.88;5135707;27;20487;-58
2023/12/04 08:59:39;;;;;;;2.63;1.63;;;;;;;19.36;44.56;95765.47;5134699;27;20967;-58
2023/12/04 09:02:07;;;;;;;0.40;0.30;;;;;;;19.51;43.27;95767.75;5135173;27;20518;-58
2023/12/04 09:04:40;;;;;;;0.40;0.30;;;;;;;19.51;43.46;95767.75;5134309;27;20442;-57
2023/12/04 09:07:10;;;;;;;1.47;0.40;;;;;;;19.43;42.25;95712.88;5134787;27;20896;-57
2023/12/04 09:10:01;;;;;;;0.80;0.80;;;;;;;19.81;42.36;95753.38;5135434;27;20445;-57
2023/12/04 09:12:38;;;;;;;0.63;0.63;;;;;;;19.52;42.38;95745.16;5134748;27;20438;-57
2023/12/04 09:15:07;;;;;;;1.37;0.70;;;;;;;19.84;42.65;95739.28;5135192;27;20512;-57
2023/12/04 09:17:37;;;;;;;3.80;0.90;;;;;;;20.56;41.73;95728.59;5134139;27;20442;-57
2023/12/04 09:20:07;;;;;;;0.57;0.57;;;;;;;19.52;42.29;95731.69;5134978;27;20466;-57
2023/12/04 09:22:40;;;;;;;0.40;0.30;;;;;;;19.91;41.87;95722.69;5134854;27;20438;-57
2023/12/04 09:25:20;;;;;;;3.13;0.50;;;;;;;20.68;41.34;95714.44;5134975;27;20472;-57
2023/12/04 09:27:48;;;;;;;0.80;0.80;;;;;;;20.09;42.31;95714.25;5134912;27;20430;-59
2023/12/04 09:30:17;;;;;;;1.97;0.67;;;;;;;20.39;40.53;95701.72;5134247;27;20430;-57
2023/12/04 09:32:46;;;;;;;1.00;0.90;;;;;;;20.66;40.37;95706.69;5134896;27;20438;-57
2023/12/04 09:35:16;;;;;;;0.77;0.77;;;;;;;21.14;39.41;95703.63;5134486;27;20919;-56
2023/12/04 09:37:48;;;;;;;0.60;0.60;;;;;;;21.31;38.56;95700.03;5134983;27;20495;-57
2023/12/04 09:40:17;;;;;;;1.37;0.53;;;;;;;21.64;38.47;95705.50;5134247;27;20475;-57
2023/12/04 09:42:46;;;;;;;0.50;0.30;;;;;;;21.93;37.86;95710.84;5134969;27;20440;-57
2023/12/04 09:45:16;;;;;;;0.50;0.40;;;;;;;21.95;39.13;95703.22;5133855;27;20443;-57
2023/12/04 09:47:45;;;;;;;0.60;0.60;;;;;;;21.97;38.60;95687.47;5134803;27;20442;-57
2023/12/04 09:50:15;;;;;;;0.67;0.67;;;;;;;22.37;36.61;95704.69;5134014;27;21155;-57
2023/12/04 09:52:46;;;;;;;0.40;0.30;;;;;;;21.66;37.89;95700.56;5134564;27;20822;-62
2023/12/04 09:55:16;;;;;;;0.40;0.30;;;;;;;21.71;37.82;95695.75;5133235;27;20442;-58
2023/12/04 09:57:46;;;;;;;0.40;0.30;;;;;;;22.29;36.16;95696.69;5134391;27;20538;-57
2023/12/04 10:00:15;;;;;;;0.50;0.40;;;;;;;23.01;36.84;95688.69;5108399;27;20433;-58
2023/12/04 10:02:44;;;;;;;0.60;0.60;;;;;;;23.69;36.37;95681.47;5132797;27;20521;-58
2023/12/04 10:05:13;;;;;;;0.40;0.40;;;;;;;23.47;34.50;95687.41;5132134;27;20473;-58
2023/12/04 10:07:42;;;;;;;0.47;0.40;;;;;;;23.09;33.86;95632.91;5134053;27;20438;-58
2023/12/04 10:10:12;;;;;;;0.50;0.40;;;;;;;24.17;34.22;95677.81;5134143;27;20437;-59
2023/12/04 10:12:42;;;;;;;0.53;0.50;;;;;;;22.90;35.14;95676.72;5133886;27;20445;-56
2023/12/04 10:15:12;;;;;;;0.60;0.53;;;;;;;22.24;35.91;95681.47;5106906;27;20484;-57
2023/12/04 10:17:43;;;;;;;0.83;0.40;;;;;;;22.55;35.84;95675.56;5133916;27;20492;-60
2023/12/04 10:20:17;;;;;;;26.97;0.60;;;;;;;21.97;37.61;95671.28;5134199;27;20438;-60
2023/12/04 10:22:57;;;;;;;1.80;0.30;;;;;;;22.21;35.35;95663.25;5133863;27;20450;-59
2023/12/04 10:25:29;;;;;;;0.40;0.30;;;;;;;22.96;36.25;95669.19;5133421;27;20449;-60
2023/12/04 10:28:09;;;;;;;1.27;0.50;;;;;;;22.77;33.94;95609.53;5133850;27;20462;-54
2023/12/04 10:30:37;;;;;;;0.53;0.40;;;;;;;24.06;32.94;95665.09;5132782;27;21022;-58
2023/12/04 10:33:07;;;;;;;0.70;0.60;;;;;;;24.25;33.97;95659.81;5127424;27;20943;-58
2023/12/04 10:35:38;;;;;;;0.40;0.30;;;;;;;23.56;33.46;95658.28;5128078;27;20818;-59
2023/12/04 10:38:08;;;;;;;0.30;0.20;;;;;;;23.77;32.65;95523.56;5133758;27;20953;-59
2023/12/04 10:40:38;;;;;;;0.50;0.33;;;;;;;24.53;32.63;95642.38;5133787;27;20819;-59
2023/12/04 10:43:17;;;;;;;0.63;0.63;;;;;;;23.78;34.54;95648.88;5133475;27;20525;-59
2023/12/04 10:45:48;;;;;;;0.40;0.40;;;;;;;24.21;34.02;95638.06;5133209;27;20521;-59
2023/12/04 10:48:18;;;;;;;0.40;0.40;;;;;;;24.56;34.59;95646.31;5133866;27;20449;-59
2023/12/04 10:50:48;;;;;;;1.03;0.60;;;;;;;25.18;34.24;95640.81;5133960;27;20446;-59
2023/12/04 10:53:18;;;;;;;0.50;0.50;;;;;;;25.52;31.26;95635.75;5133110;27;20438;-59
2023/12/04 10:55:52;;;;;;;0.50;0.50;;;;;;;25.84;30.87;95634.47;5133840;27;20465;-59
2023/12/04 10:58:24;;;;;;;0.40;0.30;;;;;;;24.40;33.62;95638.16;5132992;27;20441;-59
2023/12/04 11:00:56;;;;;;;0.40;0.30;;;;;;;23.17;35.16;95583.31;5133271;27;20819;-59
2023/12/04 11:03:32;;;;;;;0.33;0.27;;;;;;;23.94;34.02;95636.16;5133431;27;20561;-59
2023/12/04 11:06:04;;;;;;;0.37;0.30;;;;;;;24.97;32.38;95636.88;5132613;27;20843;-57
2023/12/04 11:08:36;;;;;;;0.53;0.40;;;;;;;24.86;33.28;95642.03;5133297;27;20999;-60
2023/12/04 11:11:09;;;;;;;0.50;0.50;;;;;;;24.60;33.28;95636.34;5132570;27;20977;-55
2023/12/04 11:13:42;;;;;;;0.50;0.40;;;;;;;25.22;31.89;95598.28;5132675;27;20446;-58
2023/12/04 11:16:16;;;;;;;0.40;0.30;;;;;;;25.07;32.43;95634.38;5132644;27;20438;-57
2023/12/04 11:18:50;;;;;;;0.50;0.40;;;;;;;25.19;31.93;95636.19;5132592;27;20477;-57
2023/12/04 11:21:21;;;;;;;1.43;0.47;;;;;;;24.28;31.45;95640.16;5132545;27;20981;-58
2023/12/04 11:23:51;;;;;;;0.40;0.30;;;;;;;24.88;31.46;95633.53;5132625;27;20431;-57
2023/12/04 11:26:23;;;;;;;0.40;0.30;;;;;;;24.80;32.13;95631.78;5132378;27;20919;-57
2023/12/04 11:28:53;;;;;;;0.70;0.60;;;;;;;23.47;32.57;95638.72;5132536;27;20438;-57
2023/12/04 11:31:22;;;;;;;0.40;0.30;;;;;;;23.42;33.24;95638.94;5132639;27;20562;-57
2023/12/04 11:33:51;;;;;;;0.30;0.20;;;;;;;24.70;31.82;95629.59;5131982;27;20449;-57
2023/12/04 11:36:20;;;;;;;1.03;0.40;;;;;;;25.18;31.74;95624.56;5132138;27;20796;-57
2023/12/04 11:38:50;;;;;;;0.50;0.40;;;;;;;25.29;31.76;95640.28;5128306;27;20434;-57
2023/12/04 11:41:22;;;;;;;0.30;0.30;;;;;;;25.32;31.56;95601.59;5132137;27;20972;-57
2023/12/04 11:43:57;;;;;;;0.40;0.27;;;;;;;25.92;31.19;95622.59;5132311;27;20438;-57
2023/12/04 11:46:28;;;;;;;0.60;0.60;;;;;;;25.54;31.58;95634.28;5132617;27;20427;-58
2023/12/04 11:48:58;;;;;;;0.37;0.30;;;;;;;25.58;31.56;95629.69;5131649;27;20458;-57